createdAt,value
2018-04-30T00:01:57.195Z,2.60
2018-04-30T00:04:24.608Z,2.10
2018-04-30T00:06:52.791Z,2.00
2018-04-30T00:09:20.187Z,1.80
2018-04-30T00:11:47.599Z,2.23
2018-04-30T00:14:14.994Z,2.40
2018-04-30T00:16:42.413Z,2.40
2018-04-30T00:19:09.825Z,2.50
2018-04-30T00:21:37.227Z,1.60
2018-04-30T00:24:04.639Z,1.93
2018-04-30T00:26:32.807Z,2.03
2018-04-30T00:29:00.216Z,1.40
2018-04-30T00:31:27.615Z,1.60
2018-04-30T00:33:55.024Z,1.80
2018-04-30T00:36:23.211Z,1.87
2018-04-30T00:38:50.663Z,1.50
2018-04-30T00:41:18.066Z,1.83
2018-04-30T00:43:46.276Z,1.50
2018-04-30T00:46:13.659Z,1.80
2018-04-30T00:48:41.076Z,1.40
2018-04-30T00:51:08.471Z,1.50
2018-04-30T00:53:35.878Z,1.40
2018-04-30T00:56:03.297Z,1.47
2018-04-30T00:58:30.707Z,1.33
2018-04-30T01:00:58.106Z,1.30
2018-04-30T01:03:26.284Z,1.20
2018-04-30T01:05:54.446Z,1.30
2018-04-30T01:08:21.859Z,1.03
2018-04-30T01:10:49.267Z,1.70
2018-04-30T01:13:16.676Z,1.10
2018-04-30T01:15:44.078Z,1.53
2018-04-30T01:18:11.478Z,1.00
2018-04-30T01:20:38.882Z,1.00
2018-04-30T01:23:07.054Z,1.03
2018-04-30T01:25:34.471Z,0.87
2018-04-30T01:28:01.880Z,1.27
2018-04-30T01:30:29.279Z,0.80
2018-04-30T01:32:56.690Z,1.10
2018-04-30T01:35:24.154Z,1.00
2018-04-30T01:37:52.323Z,0.93
2018-04-30T01:40:19.736Z,1.10
2018-04-30T01:42:47.163Z,1.20
2018-04-30T01:45:14.554Z,0.87
2018-04-30T01:47:41.970Z,0.93
2018-04-30T01:50:10.142Z,1.10
2018-04-30T01:52:37.550Z,0.90
2018-04-30T01:55:04.950Z,0.90
2018-04-30T01:57:32.356Z,0.93
2018-04-30T01:59:59.764Z,0.60
2018-04-30T02:02:27.167Z,0.80
2018-04-30T02:04:54.567Z,1.00
2018-04-30T02:07:22.747Z,0.83
2018-04-30T02:09:50.152Z,0.90
2018-04-30T02:12:17.557Z,0.70
2018-04-30T02:14:44.967Z,0.60
2018-04-30T02:17:12.368Z,0.80
2018-04-30T02:19:39.769Z,0.60
2018-04-30T02:22:07.171Z,0.60
2018-04-30T02:24:35.340Z,0.53
2018-04-30T02:27:03.508Z,0.77
2018-04-30T02:29:30.910Z,0.50
2018-04-30T02:31:58.310Z,0.60
2018-04-30T02:34:25.733Z,0.60
2018-04-30T02:36:53.151Z,0.40
2018-04-30T02:39:21.298Z,0.60
2018-04-30T02:41:48.704Z,0.50
2018-04-30T02:44:16.102Z,0.50
2018-04-30T02:46:44.271Z,0.60
2018-04-30T02:49:11.685Z,0.40
2018-04-30T02:51:39.103Z,0.60
2018-04-30T02:54:06.507Z,0.50
2018-04-30T02:56:33.954Z,0.60
2018-04-30T02:59:01.364Z,0.60
2018-04-30T03:01:29.556Z,0.60
2018-04-30T03:03:56.960Z,0.60
2018-04-30T03:06:25.227Z,0.90
2018-04-30T03:08:53.382Z,0.40
2018-04-30T03:11:21.551Z,0.60
2018-04-30T03:13:49.736Z,0.53
2018-04-30T03:16:17.199Z,0.47
2018-04-30T03:18:44.582Z,0.50
2018-04-30T03:21:12.759Z,0.50
2018-04-30T03:23:40.173Z,0.47
2018-04-30T03:26:08.338Z,0.50
2018-04-30T03:28:36.510Z,0.50
2018-04-30T03:31:03.911Z,0.60
2018-04-30T03:33:31.356Z,0.50
2018-04-30T03:35:58.761Z,0.47
2018-04-30T03:38:26.175Z,0.50
2018-04-30T03:40:53.602Z,0.40
2018-04-30T03:43:20.991Z,0.30
2018-04-30T03:45:48.390Z,0.40
2018-04-30T03:48:15.792Z,0.50
2018-04-30T03:50:43.202Z,0.77
2018-04-30T03:53:10.616Z,0.60
2018-04-30T03:55:38.018Z,0.73
2018-04-30T03:58:05.414Z,0.67
2018-04-30T04:00:44.891Z,0.60
2018-04-30T04:03:24.275Z,0.70
2018-04-30T04:06:15.287Z,0.50
2018-04-30T04:08:42.705Z,0.80
2018-04-30T04:11:10.102Z,0.97
2018-04-30T04:13:38.275Z,0.90
2018-04-30T04:16:05.674Z,0.70
2018-04-30T04:18:33.087Z,0.70
2018-04-30T04:21:00.514Z,0.80
2018-04-30T04:23:27.919Z,0.67
2018-04-30T04:25:56.082Z,0.60
2018-04-30T04:28:24.251Z,0.80
2018-04-30T04:30:52.447Z,0.77
2018-04-30T04:33:19.850Z,0.90
2018-04-30T04:35:48.029Z,0.87
2018-04-30T04:38:15.443Z,1.03
2018-04-30T04:40:43.611Z,0.60
2018-04-30T04:43:11.774Z,1.10
2018-04-30T04:45:39.179Z,0.80
2018-04-30T04:48:06.584Z,0.70
2018-04-30T04:50:33.983Z,0.90
2018-04-30T04:53:02.168Z,0.70
2018-04-30T04:55:29.567Z,0.90
2018-04-30T04:57:56.968Z,0.77
2018-04-30T05:00:24.402Z,0.73
2018-04-30T05:02:51.811Z,0.67
2018-04-30T05:05:19.983Z,0.70
2018-04-30T05:07:47.390Z,0.67
2018-04-30T05:10:14.847Z,0.90
2018-04-30T05:12:43.023Z,0.80
2018-04-30T05:15:10.431Z,0.80
2018-04-30T05:17:37.839Z,0.53
2018-04-30T05:20:05.243Z,0.80
2018-04-30T05:22:32.644Z,0.70
2018-04-30T05:25:00.051Z,0.80
2018-04-30T05:27:27.459Z,0.77
2018-04-30T05:29:55.625Z,0.70
2018-04-30T05:32:23.027Z,0.67
2018-04-30T05:34:50.430Z,0.43
2018-04-30T05:37:17.840Z,0.73
2018-04-30T05:39:45.247Z,0.73
2018-04-30T05:42:12.655Z,0.57
2018-04-30T05:44:40.055Z,0.60
2018-04-30T05:47:08.231Z,0.50
2018-04-30T05:49:35.636Z,0.50
2018-04-30T05:52:03.068Z,0.60
2018-04-30T05:54:30.462Z,0.70
2018-04-30T05:56:57.879Z,0.80
2018-04-30T05:59:26.057Z,0.60
2018-04-30T06:01:53.459Z,0.70
2018-04-30T06:04:20.951Z,0.67
2018-04-30T06:06:48.363Z,0.60
2018-04-30T06:09:16.518Z,0.80
2018-04-30T06:11:44.699Z,0.67
2018-04-30T06:14:12.155Z,0.60
2018-04-30T06:16:39.607Z,0.50
2018-04-30T06:19:07.007Z,0.60
2018-04-30T06:21:35.178Z,0.43
2018-04-30T06:24:02.578Z,0.90
2018-04-30T06:26:30.760Z,0.70
2018-04-30T06:28:58.922Z,0.70
2018-04-30T06:31:27.112Z,0.80
2018-04-30T06:33:54.527Z,0.60
2018-04-30T06:36:22.686Z,0.70
2018-04-30T06:38:50.854Z,0.87
2018-04-30T06:41:18.260Z,0.50
2018-04-30T06:43:45.668Z,0.40
2018-04-30T06:46:13.071Z,0.33
2018-04-30T06:48:40.493Z,0.50
2018-04-30T06:51:07.888Z,0.50
2018-04-30T06:53:35.390Z,0.53
2018-04-30T06:56:02.702Z,0.50
2018-04-30T06:58:30.112Z,0.53
2018-04-30T07:03:25.255Z,0.50
2018-04-30T07:05:53.426Z,0.50
2018-04-30T07:08:20.823Z,0.40
2018-04-30T07:10:48.224Z,0.57
2018-04-30T07:13:15.642Z,0.60
2018-04-30T07:15:43.819Z,0.33
2018-04-30T07:18:11.227Z,0.53
2018-04-30T07:20:38.697Z,0.40
2018-04-30T07:27:59.959Z,0.53
2018-04-30T07:30:27.364Z,0.40
2018-04-30T07:32:54.771Z,0.40
2018-04-30T07:35:22.937Z,0.40
2018-04-30T07:37:50.334Z,0.40
2018-04-30T07:40:17.735Z,0.50
2018-04-30T07:42:45.205Z,0.27
2018-04-30T07:45:13.302Z,0.23
2018-04-30T07:47:41.478Z,0.50
2018-04-30T07:50:08.887Z,0.60
2018-04-30T07:52:36.296Z,0.40
2018-04-30T07:55:03.694Z,0.30
2018-04-30T07:57:31.094Z,0.57
2018-04-30T07:59:58.495Z,0.40
2018-04-30T08:02:25.914Z,0.40
2018-04-30T08:04:53.332Z,0.40
2018-04-30T08:07:20.744Z,0.40
2018-04-30T08:09:48.147Z,0.40
2018-04-30T08:12:15.559Z,0.43
2018-04-30T08:14:43.780Z,0.37
2018-04-30T08:17:11.158Z,0.40
2018-04-30T08:19:39.323Z,0.30
2018-04-30T08:22:07.500Z,0.33
2018-04-30T08:24:34.908Z,0.40
2018-04-30T08:29:29.274Z,0.40
2018-04-30T08:31:56.683Z,0.30
2018-04-30T08:34:24.094Z,0.27
2018-04-30T08:36:51.490Z,0.40
2018-04-30T08:39:18.923Z,0.50
2018-04-30T08:58:56.573Z,0.40
2018-04-30T09:06:17.899Z,0.30
2018-04-30T09:11:12.458Z,0.40
2018-04-30T09:13:39.867Z,0.30
2018-04-30T09:18:35.007Z,0.30
2018-04-30T09:21:02.411Z,0.37
2018-04-30T09:23:29.822Z,0.30
2018-04-30T09:30:51.895Z,0.43
2018-04-30T09:33:19.294Z,0.40
2018-04-30T09:35:47.468Z,0.30
2018-04-30T09:43:09.563Z,0.50
2018-04-30T09:45:36.967Z,0.37
2018-04-30T09:55:25.246Z,0.40
2018-04-30T09:57:53.438Z,0.30
2018-04-30T10:27:22.194Z,0.30
2018-04-30T10:29:50.367Z,0.23
2018-04-30T10:32:17.774Z,0.30
2018-04-30T10:47:01.528Z,0.70
2018-04-30T10:51:56.659Z,0.33
2018-04-30T10:54:24.066Z,0.30
2018-04-30T10:56:51.462Z,0.40
2018-04-30T11:16:29.200Z,0.30
2018-04-30T11:38:37.022Z,0.40
2018-04-30T11:41:04.427Z,0.40
2018-04-30T11:45:58.794Z,0.50
2018-04-30T12:00:42.519Z,0.40
2018-04-30T12:10:32.422Z,0.40
2018-04-30T12:12:59.835Z,0.40
2018-04-30T12:15:28.017Z,0.63
2018-04-30T12:27:45.514Z,0.30
2018-04-30T12:30:13.682Z,0.60
2018-04-30T12:52:18.303Z,0.30
2018-04-30T12:54:45.707Z,0.30
2018-04-30T13:04:35.650Z,0.40
2018-04-30T13:09:29.986Z,0.50
2018-04-30T13:46:16.435Z,0.37
2018-04-30T13:51:12.266Z,0.30
2018-04-30T13:53:39.696Z,0.20
2018-04-30T14:15:43.858Z,0.20
2018-04-30T14:25:32.932Z,0.30
2018-04-30T14:30:27.354Z,0.40
2018-04-30T15:41:35.987Z,0.37
2018-04-30T15:44:04.163Z,0.60
2018-04-30T16:28:13.851Z,0.20
2018-04-30T16:30:41.247Z,0.30
2018-04-30T16:57:41.420Z,0.60
2018-04-30T17:00:09.235Z,0.53
2018-04-30T17:19:45.382Z,0.60
2018-04-30T17:32:01.495Z,0.80
2018-04-30T17:44:18.274Z,2.10
2018-04-30T17:46:45.679Z,1.47
2018-04-30T17:49:13.887Z,1.57
2018-04-30T17:51:41.291Z,0.70
2018-04-30T17:54:09.532Z,0.60
2018-04-30T17:56:36.862Z,1.17
2018-04-30T17:59:04.268Z,0.77
2018-04-30T18:13:47.282Z,1.20
2018-04-30T18:16:14.678Z,3.17
2018-04-30T18:18:42.875Z,2.00
2018-04-30T18:21:10.276Z,2.50
2018-04-30T19:02:51.451Z,0.70
2018-04-30T19:05:18.878Z,0.70
2018-04-30T19:24:55.799Z,0.50
2018-04-30T19:29:50.171Z,0.70
2018-04-30T19:32:17.615Z,0.50
2018-04-30T19:34:45.759Z,0.95
2018-04-30T23:35:09.813Z,0.50
